sensor_id;sensor_type;location;lat;lon;timestamp;pressure;altitude;pressure_sealevel;temperature;humidity
59757;BME280;45631;51.962;5.974;2022-12-29T00:01:08;99895.41;;;9.66;100.00
59757;BME280;45631;51.962;5.974;2022-12-29T00:03:36;99876.91;;;9.68;100.00
59757;BME280;45631;51.962;5.974;2022-12-29T00:06:06;99878.81;;;9.66;100.00
59757;BME280;45631;51.962;5.974;2022-12-29T00:08:34;99880.03;;;9.73;100.00
59757;BME280;45631;51.962;5.974;2022-12-29T00:11:09;99865.34;;;9.70;100.00
59757;BME280;45631;51.962;5.974;2022-12-29T00:13:38;99859.25;;;9.70;100.00
59757;BME280;45631;51.962;5.974;2022-12-29T00:16:24;99870.84;;;9.67;100.00
59757;BME280;45631;51.962;5.974;2022-12-29T00:18:52;99860.22;;;9.69;100.00
59757;BME280;45631;51.962;5.974;2022-12-29T00:21:23;99854.22;;;9.67;100.00
59757;BME280;45631;51.962;5.974;2022-12-29T00:24:12;99847.31;;;9.66;100.00
59757;BME280;45631;51.962;5.974;2022-12-29T00:27:09;99831.69;;;9.64;100.00
59757;BME280;45631;51.962;5.974;2022-12-29T00:29:52;99832.53;;;9.64;100.00
59757;BME280;45631;51.962;5.974;2022-12-29T00:32:37;99835.97;;;9.65;100.00
59757;BME280;45631;51.962;5.974;2022-12-29T00:35:28;99827.03;;;9.68;100.00
59757;BME280;45631;51.962;5.974;2022-12-29T00:38:02;99834.56;;;9.72;100.00
59757;BME280;45631;51.962;5.974;2022-12-29T00:40:48;99832.06;;;9.71;100.00
59757;BME280;45631;51.962;5.974;2022-12-29T00:43:34;99821.56;;;9.71;100.00
59757;BME280;45631;51.962;5.974;2022-12-29T00:46:20;99806.03;;;9.68;100.00
59757;BME280;45631;51.962;5.974;2022-12-29T00:48:48;99814.84;;;9.67;100.00
59757;BME280;45631;51.962;5.974;2022-12-29T00:51:33;99809.50;;;9.68;100.00
59757;BME280;45631;51.962;5.974;2022-12-29T00:54:03;99803.88;;;9.73;100.00
59757;BME280;45631;51.962;5.974;2022-12-29T00:56:31;99801.25;;;9.73;100.00
59757;BME280;45631;51.962;5.974;2022-12-29T00:59:00;99803.19;;;9.71;100.00
59757;BME280;45631;51.962;5.974;2022-12-29T01:01:28;99802.19;;;9.72;100.00
59757;BME280;45631;51.962;5.974;2022-12-29T01:03:57;99797.94;;;9.71;100.00
59757;BME280;45631;51.962;5.974;2022-12-29T01:06:30;99797.94;;;9.71;100.00
59757;BME280;45631;51.962;5.974;2022-12-29T01:08:59;99791.81;;;9.70;100.00
59757;BME280;45631;51.962;5.974;2022-12-29T01:11:46;99793.84;;;9.67;100.00
59757;BME280;45631;51.962;5.974;2022-12-29T01:14:14;99790.16;;;9.69;100.00
59757;BME280;45631;51.962;5.974;2022-12-29T01:16:44;99788.38;;;9.70;100.00
59757;BME280;45631;51.962;5.974;2022-12-29T01:19:13;99783.13;;;9.70;100.00
59757;BME280;45631;51.962;5.974;2022-12-29T01:21:44;99787.44;;;9.71;100.00
59757;BME280;45631;51.962;5.974;2022-12-29T01:24:12;99780.72;;;9.67;100.00
59757;BME280;45631;51.962;5.974;2022-12-29T01:26:41;99774.88;;;9.63;100.00
59757;BME280;45631;51.962;5.974;2022-12-29T01:29:12;99778.72;;;9.59;100.00
59757;BME280;45631;51.962;5.974;2022-12-29T01:31:41;99781.22;;;9.60;100.00
59757;BME280;45631;51.962;5.974;2022-12-29T01:34:09;99768.34;;;9.57;100.00
59757;BME280;45631;51.962;5.974;2022-12-29T01:36:37;99766.78;;;9.55;100.00
59757;BME280;45631;51.962;5.974;2022-12-29T01:39:05;99762.34;;;9.55;100.00
59757;BME280;45631;51.962;5.974;2022-12-29T01:41:33;99753.78;;;9.53;100.00
59757;BME280;45631;51.962;5.974;2022-12-29T01:44:01;99760.22;;;9.49;100.00
59757;BME280;45631;51.962;5.974;2022-12-29T01:46:33;99757.59;;;9.49;100.00
59757;BME280;45631;51.962;5.974;2022-12-29T01:49:04;99767.13;;;9.50;100.00
59757;BME280;45631;51.962;5.974;2022-12-29T01:51:35;99755.19;;;9.46;100.00
59757;BME280;45631;51.962;5.974;2022-12-29T01:54:11;99736.81;;;9.46;100.00
59757;BME280;45631;51.962;5.974;2022-12-29T01:57:04;99753.53;;;9.45;100.00
59757;BME280;45631;51.962;5.974;2022-12-29T01:59:36;99753.16;;;9.50;100.00
59757;BME280;45631;51.962;5.974;2022-12-29T02:02:07;99742.78;;;9.48;100.00
59757;BME280;45631;51.962;5.974;2022-12-29T02:04:40;99749.59;;;9.51;100.00
59757;BME280;45631;51.962;5.974;2022-12-29T02:07:15;99734.22;;;9.57;100.00
59757;BME280;45631;51.962;5.974;2022-12-29T02:09:47;99741.72;;;9.62;100.00
59757;BME280;45631;51.962;5.974;2022-12-29T02:12:16;99749.72;;;9.60;100.00
59757;BME280;45631;51.962;5.974;2022-12-29T02:14:46;99743.97;;;9.67;100.00
59757;BME280;45631;51.962;5.974;2022-12-29T02:17:23;99748.75;;;9.73;100.00
59757;BME280;45631;51.962;5.974;2022-12-29T02:20:28;99742.53;;;9.74;100.00
59757;BME280;45631;51.962;5.974;2022-12-29T02:23:21;99738.84;;;9.76;100.00
59757;BME280;45631;51.962;5.974;2022-12-29T02:26:08;99737.88;;;9.77;100.00
59757;BME280;45631;51.962;5.974;2022-12-29T02:31:48;99735.00;;;9.80;100.00
59757;BME280;45631;51.962;5.974;2022-12-29T02:34:30;99742.03;;;9.91;100.00
59757;BME280;45631;51.962;5.974;2022-12-29T02:37:20;99732.47;;;9.90;100.00
59757;BME280;45631;51.962;5.974;2022-12-29T02:39:55;99734.97;;;9.92;100.00
59757;BME280;45631;51.962;5.974;2022-12-29T02:42:34;99723.16;;;9.97;100.00
59757;BME280;45631;51.962;5.974;2022-12-29T02:45:05;99726.38;;;10.01;100.00
59757;BME280;45631;51.962;5.974;2022-12-29T02:47:42;99725.03;;;10.07;100.00
59757;BME280;45631;51.962;5.974;2022-12-29T02:50:20;99723.50;;;10.04;100.00
59757;BME280;45631;51.962;5.974;2022-12-29T02:52:56;99730.97;;;10.09;100.00
59757;BME280;45631;51.962;5.974;2022-12-29T02:55:26;99720.25;;;10.12;100.00
59757;BME280;45631;51.962;5.974;2022-12-29T02:58:13;99723.69;;;10.12;100.00
59757;BME280;45631;51.962;5.974;2022-12-29T03:00:56;99714.88;;;10.13;100.00
59757;BME280;45631;51.962;5.974;2022-12-29T03:03:43;99722.63;;;10.15;100.00
59757;BME280;45631;51.962;5.974;2022-12-29T03:06:30;99725.97;;;10.17;100.00
59757;BME280;45631;51.962;5.974;2022-12-29T03:09:11;99724.88;;;10.20;100.00
59757;BME280;45631;51.962;5.974;2022-12-29T03:11:51;99713.53;;;10.19;100.00
59757;BME280;45631;51.962;5.974;2022-12-29T03:14:45;99701.81;;;10.23;100.00
59757;BME280;45631;51.962;5.974;2022-12-29T03:17:39;99692.50;;;10.19;100.00
59757;BME280;45631;51.962;5.974;2022-12-29T03:20:14;99693.25;;;10.21;100.00
59757;BME280;45631;51.962;5.974;2022-12-29T03:22:47;99703.03;;;10.19;100.00
59757;BME280;45631;51.962;5.974;2022-12-29T03:25:20;99702.53;;;10.25;100.00
59757;BME280;45631;51.962;5.974;2022-12-29T03:27:54;99708.88;;;10.23;100.00
59757;BME280;45631;51.962;5.974;2022-12-29T03:30:23;99714.69;;;10.26;100.00
59757;BME280;45631;51.962;5.974;2022-12-29T03:32:53;99704.19;;;10.26;100.00
59757;BME280;45631;51.962;5.974;2022-12-29T03:35:25;99705.59;;;10.30;100.00
59757;BME280;45631;51.962;5.974;2022-12-29T03:37:59;99703.94;;;10.29;100.00
59757;BME280;45631;51.962;5.974;2022-12-29T03:40:31;99700.00;;;10.24;100.00
59757;BME280;45631;51.962;5.974;2022-12-29T03:43:01;99693.94;;;10.23;100.00
59757;BME280;45631;51.962;5.974;2022-12-29T03:45:29;99690.59;;;10.21;100.00
59757;BME280;45631;51.962;5.974;2022-12-29T03:47:58;99701.81;;;10.23;100.00
59757;BME280;45631;51.962;5.974;2022-12-29T03:50:27;99694.66;;;10.25;100.00
59757;BME280;45631;51.962;5.974;2022-12-29T03:52:55;99701.00;;;10.23;100.00
59757;BME280;45631;51.962;5.974;2022-12-29T03:55:23;99695.13;;;10.19;100.00
59757;BME280;45631;51.962;5.974;2022-12-29T03:57:52;99710.78;;;10.21;100.00
59757;BME280;45631;51.962;5.974;2022-12-29T04:00:20;99709.69;;;10.23;100.00
59757;BME280;45631;51.962;5.974;2022-12-29T04:02:48;99715.22;;;10.20;100.00
59757;BME280;45631;51.962;5.974;2022-12-29T04:05:16;99709.09;;;10.20;100.00
59757;BME280;45631;51.962;5.974;2022-12-29T04:07:46;99708.28;;;10.19;100.00
59757;BME280;45631;51.962;5.974;2022-12-29T04:10:14;99710.31;;;10.15;100.00
59757;BME280;45631;51.962;5.974;2022-12-29T04:12:44;99715.69;;;10.14;100.00
59757;BME280;45631;51.962;5.974;2022-12-29T04:15:13;99718.19;;;10.15;100.00
59757;BME280;45631;51.962;5.974;2022-12-29T04:17:41;99726.19;;;10.14;100.00
59757;BME280;45631;51.962;5.974;2022-12-29T04:20:10;99723.69;;;10.12;100.00
59757;BME280;45631;51.962;5.974;2022-12-29T04:23:00;99715.00;;;10.12;100.00
59757;BME280;45631;51.962;5.974;2022-12-29T04:25:30;99699.94;;;10.14;100.00
59757;BME280;45631;51.962;5.974;2022-12-29T04:28:00;99718.84;;;10.08;100.00
59757;BME280;45631;51.962;5.974;2022-12-29T04:30:31;99704.84;;;10.07;100.00
59757;BME280;45631;51.962;5.974;2022-12-29T04:33:00;99708.44;;;10.06;100.00
59757;BME280;45631;51.962;5.974;2022-12-29T04:35:28;99715.13;;;10.10;100.00
59757;BME280;45631;51.962;5.974;2022-12-29T04:37:58;99721.69;;;10.05;100.00
59757;BME280;45631;51.962;5.974;2022-12-29T04:40:28;99733.41;;;10.01;100.00
59757;BME280;45631;51.962;5.974;2022-12-29T04:42:56;99720.53;;;9.97;100.00
59757;BME280;45631;51.962;5.974;2022-12-29T04:45:24;99729.84;;;9.90;100.00
59757;BME280;45631;51.962;5.974;2022-12-29T04:47:52;99730.09;;;9.87;100.00
59757;BME280;45631;51.962;5.974;2022-12-29T04:50:20;99729.84;;;9.90;100.00
59757;BME280;45631;51.962;5.974;2022-12-29T04:52:48;99727.72;;;9.84;100.00
59757;BME280;45631;51.962;5.974;2022-12-29T04:55:17;99718.19;;;9.83;100.00
59757;BME280;45631;51.962;5.974;2022-12-29T04:57:46;99732.25;;;9.82;100.00
59757;BME280;45631;51.962;5.974;2022-12-29T05:00:14;99746.09;;;9.84;100.00
59757;BME280;45631;51.962;5.974;2022-12-29T05:02:45;99741.91;;;9.81;100.00
59757;BME280;45631;51.962;5.974;2022-12-29T05:05:13;99744.53;;;9.81;100.00
59757;BME280;45631;51.962;5.974;2022-12-29T05:07:42;99753.97;;;9.84;100.00
59757;BME280;45631;51.962;5.974;2022-12-29T05:10:10;99791.34;;;9.76;100.00
59757;BME280;45631;51.962;5.974;2022-12-29T05:12:40;99755.66;;;9.51;100.00
59757;BME280;45631;51.962;5.974;2022-12-29T05:15:10;99761.41;;;9.45;100.00
59757;BME280;45631;51.962;5.974;2022-12-29T05:17:38;99759.84;;;9.42;100.00
59757;BME280;45631;51.962;5.974;2022-12-29T05:20:08;99770.47;;;9.41;100.00
59757;BME280;45631;51.962;5.974;2022-12-29T05:22:36;99781.69;;;9.32;100.00
59757;BME280;45631;51.962;5.974;2022-12-29T05:25:05;99795.63;;;9.32;100.00
59757;BME280;45631;51.962;5.974;2022-12-29T05:27:33;99788.00;;;9.29;100.00
59757;BME280;45631;51.962;5.974;2022-12-29T05:30:02;99790.84;;;9.26;100.00
59757;BME280;45631;51.962;5.974;2022-12-29T05:32:32;99789.78;;;9.28;100.00
59757;BME280;45631;51.962;5.974;2022-12-29T05:35:00;99794.75;;;9.20;100.00
59757;BME280;45631;51.962;5.974;2022-12-29T05:37:28;99794.88;;;9.07;100.00
59757;BME280;45631;51.962;5.974;2022-12-29T05:39:56;99803.19;;;9.01;100.00
59757;BME280;45631;51.962;5.974;2022-12-29T05:42:25;99811.66;;;9.05;100.00
59757;BME280;45631;51.962;5.974;2022-12-29T05:44:54;99815.81;;;8.96;100.00
59757;BME280;45631;51.962;5.974;2022-12-29T05:47:22;99818.19;;;8.88;100.00
59757;BME280;45631;51.962;5.974;2022-12-29T05:49:51;99810.44;;;8.86;100.00
59757;BME280;45631;51.962;5.974;2022-12-29T05:52:19;99816.00;;;8.82;100.00
59757;BME280;45631;51.962;5.974;2022-12-29T05:54:47;99806.19;;;8.72;100.00
59757;BME280;45631;51.962;5.974;2022-12-29T05:57:16;99815.75;;;8.73;100.00
59757;BME280;45631;51.962;5.974;2022-12-29T05:59:44;99815.84;;;8.72;100.00
59757;BME280;45631;51.962;5.974;2022-12-29T06:02:12;99820.03;;;8.74;100.00
59757;BME280;45631;51.962;5.974;2022-12-29T06:04:40;99808.94;;;8.71;100.00
59757;BME280;45631;51.962;5.974;2022-12-29T06:07:10;99817.75;;;8.70;100.00
59757;BME280;45631;51.962;5.974;2022-12-29T06:09:38;99808.34;;;8.67;100.00
59757;BME280;45631;51.962;5.974;2022-12-29T06:12:06;99808.44;;;8.66;100.00
59757;BME280;45631;51.962;5.974;2022-12-29T06:14:34;99813.66;;;8.66;100.00
59757;BME280;45631;51.962;5.974;2022-12-29T06:17:03;99815.34;;;8.67;100.00
59757;BME280;45631;51.962;5.974;2022-12-29T06:19:31;99808.91;;;8.59;100.00
59757;BME280;45631;51.962;5.974;2022-12-29T06:21:59;99817.38;;;8.63;100.00
59757;BME280;45631;51.962;5.974;2022-12-29T06:24:28;99820.09;;;8.61;100.00
59757;BME280;45631;51.962;5.974;2022-12-29T06:26:57;99822.50;;;8.65;100.00
59757;BME280;45631;51.962;5.974;2022-12-29T06:29:25;99829.97;;;8.58;100.00
59757;BME280;45631;51.962;5.974;2022-12-29T06:31:53;99824.94;;;8.55;100.00
59757;BME280;45631;51.962;5.974;2022-12-29T06:34:24;99833.25;;;8.49;100.00
59757;BME280;45631;51.962;5.974;2022-12-29T06:36:52;99825.06;;;8.53;100.00
59757;BME280;45631;51.962;5.974;2022-12-29T06:39:23;99827.28;;;8.46;100.00
59757;BME280;45631;51.962;5.974;2022-12-29T06:41:53;99835.06;;;8.48;100.00
59757;BME280;45631;51.962;5.974;2022-12-29T06:44:21;99843.63;;;8.50;100.00
59757;BME280;45631;51.962;5.974;2022-12-29T06:46:50;99838.38;;;8.50;100.00
59757;BME280;45631;51.962;5.974;2022-12-29T06:49:18;99828.53;;;8.54;100.00
59757;BME280;45631;51.962;5.974;2022-12-29T06:51:46;99828.53;;;8.54;100.00
59757;BME280;45631;51.962;5.974;2022-12-29T06:54:14;99830.91;;;8.57;100.00
59757;BME280;45631;51.962;5.974;2022-12-29T06:56:43;99831.53;;;8.60;100.00
59757;BME280;45631;51.962;5.974;2022-12-29T06:59:12;99832.13;;;8.64;100.00
59757;BME280;45631;51.962;5.974;2022-12-29T07:01:41;99835.59;;;8.65;100.00
59757;BME280;45631;51.962;5.974;2022-12-29T07:04:09;99840.63;;;8.68;100.00
59757;BME280;45631;51.962;5.974;2022-12-29T07:06:37;99826.69;;;8.67;100.00
59757;BME280;45631;51.962;5.974;2022-12-29T07:09:07;99843.94;;;8.70;100.00
59757;BME280;45631;51.962;5.974;2022-12-29T07:11:36;99840.28;;;8.72;100.00
59757;BME280;45631;51.962;5.974;2022-12-29T07:14:04;99840.16;;;8.74;100.00
59757;BME280;45631;51.962;5.974;2022-12-29T07:16:33;99854.00;;;8.76;100.00
59757;BME280;45631;51.962;5.974;2022-12-29T07:19:02;99845.91;;;8.79;100.00
59757;BME280;45631;51.962;5.974;2022-12-29T07:21:30;99850.22;;;8.80;100.00
59757;BME280;45631;51.962;5.974;2022-12-29T07:23:58;99838.91;;;8.79;100.00
59757;BME280;45631;51.962;5.974;2022-12-29T07:26:26;99849.25;;;8.81;100.00
59757;BME280;45631;51.962;5.974;2022-12-29T07:29:01;99850.22;;;8.80;100.00
59757;BME280;45631;51.962;5.974;2022-12-29T07:31:30;99847.69;;;8.78;100.00
59757;BME280;45631;51.962;5.974;2022-12-29T07:33:59;99852.72;;;8.82;100.00
59757;BME280;45631;51.962;5.974;2022-12-29T07:36:28;99855.97;;;8.85;100.00
59757;BME280;45631;51.962;5.974;2022-12-29T07:39:00;99862.75;;;8.88;100.00
59757;BME280;45631;51.962;5.974;2022-12-29T07:41:28;99863.69;;;8.87;100.00
59757;BME280;45631;51.962;5.974;2022-12-29T07:43:57;99858.47;;;8.87;100.00
59757;BME280;45631;51.962;5.974;2022-12-29T07:46:25;99870.50;;;8.89;100.00
59757;BME280;45631;51.962;5.974;2022-12-29T07:49:14;99875.41;;;8.94;100.00
59757;BME280;45631;51.962;5.974;2022-12-29T07:51:43;99877.91;;;8.95;100.00
59757;BME280;45631;51.962;5.974;2022-12-29T07:54:11;99889.38;;;8.94;100.00
59757;BME280;45631;51.962;5.974;2022-12-29T07:56:40;99906.16;;;8.92;100.00
59757;BME280;45631;51.962;5.974;2022-12-29T07:59:10;99899.13;;;8.92;100.00
59757;BME280;45631;51.962;5.974;2022-12-29T08:01:39;99910.34;;;8.94;100.00
59757;BME280;45631;51.962;5.974;2022-12-29T08:04:07;99912.84;;;8.96;100.00
59757;BME280;45631;51.962;5.974;2022-12-29T08:06:37;99916.31;;;8.96;100.00
59757;BME280;45631;51.962;5.974;2022-12-29T08:09:05;99910.25;;;8.96;100.00
59757;BME280;45631;51.962;5.974;2022-12-29T08:11:43;99909.63;;;8.92;100.00
59757;BME280;45631;51.962;5.974;2022-12-29T08:14:12;99906.16;;;8.92;100.00
59757;BME280;45631;51.962;5.974;2022-12-29T08:16:40;99903.75;;;8.89;100.00
59757;BME280;45631;51.962;5.974;2022-12-29T08:19:10;99919.16;;;8.93;100.00
59757;BME280;45631;51.962;5.974;2022-12-29T08:21:39;99925.06;;;8.84;100.00
59757;BME280;45631;51.962;5.974;2022-12-29T08:24:08;99925.06;;;8.84;100.00
59757;BME280;45631;51.962;5.974;2022-12-29T08:26:36;99923.38;;;8.83;100.00
59757;BME280;45631;51.962;5.974;2022-12-29T08:29:04;99941.03;;;8.81;100.00
59757;BME280;45631;51.962;5.974;2022-12-29T08:31:33;99923.78;;;8.90;100.00
59757;BME280;45631;51.962;5.974;2022-12-29T08:34:01;99925.34;;;8.92;100.00
59757;BME280;45631;51.962;5.974;2022-12-29T08:36:30;99922.72;;;8.92;100.00
59757;BME280;45631;51.962;5.974;2022-12-29T08:38:59;99917.97;;;8.98;100.00
59757;BME280;45631;51.962;5.974;2022-12-29T08:41:28;99923.94;;;9.00;100.00
59757;BME280;45631;51.962;5.974;2022-12-29T08:43:56;99923.75;;;9.03;100.00
59757;BME280;45631;51.962;5.974;2022-12-29T08:46:24;99919.19;;;9.05;100.00
59757;BME280;45631;51.962;5.974;2022-12-29T08:48:53;99918.03;;;9.09;100.00
59757;BME280;45631;51.962;5.974;2022-12-29T08:51:21;99904.34;;;9.17;100.00
59757;BME280;45631;51.962;5.974;2022-12-29T08:53:51;99915.81;;;9.27;100.00
59757;BME280;45631;51.962;5.974;2022-12-29T08:56:21;99916.44;;;9.30;100.00
59757;BME280;45631;51.962;5.974;2022-12-29T08:58:50;99915.25;;;9.35;100.00
59757;BME280;45631;51.962;5.974;2022-12-29T09:01:19;99911.06;;;9.32;100.00
59757;BME280;45631;51.962;5.974;2022-12-29T09:03:47;99920.97;;;9.28;100.00
59757;BME280;45631;51.962;5.974;2022-12-29T09:06:36;99919.41;;;9.26;100.00
59757;BME280;45631;51.962;5.974;2022-12-29T09:09:06;99917.50;;;9.28;100.00
59757;BME280;45631;51.962;5.974;2022-12-29T09:11:36;99910.69;;;9.25;100.00
59757;BME280;45631;51.962;5.974;2022-12-29T09:14:04;99910.81;;;9.24;100.00
59757;BME280;45631;51.962;5.974;2022-12-29T09:16:34;99925.72;;;9.23;100.00
59757;BME280;45631;51.962;5.974;2022-12-29T09:19:02;99928.47;;;9.22;100.00
59757;BME280;45631;51.962;5.974;2022-12-29T09:21:31;99918.66;;;9.12;100.00
59757;BME280;45631;51.962;5.974;2022-12-29T09:23:59;99923.75;;;9.03;100.00
59757;BME280;45631;51.962;5.974;2022-12-29T09:26:27;99927.16;;;8.92;100.00
59757;BME280;45631;51.962;5.974;2022-12-29T09:28:56;99937.41;;;8.95;100.00
59757;BME280;45631;51.962;5.974;2022-12-29T09:31:27;99938.06;;;8.86;100.00
59757;BME280;45631;51.962;5.974;2022-12-29T09:33:55;99936.88;;;8.90;100.00
59757;BME280;45631;51.962;5.974;2022-12-29T09:36:26;99945.16;;;8.96;100.00
59757;BME280;45631;51.962;5.974;2022-12-29T09:38:54;99938.47;;;8.92;100.00
59757;BME280;45631;51.962;5.974;2022-12-29T09:41:26;99940.97;;;8.94;100.00
59757;BME280;45631;51.962;5.974;2022-12-29T09:44:05;99936.34;;;8.98;100.00
59757;BME280;45631;51.962;5.974;2022-12-29T09:46:37;99948.91;;;9.05;100.00
59757;BME280;45631;51.962;5.974;2022-12-29T09:49:15;99952.47;;;9.04;100.00
59757;BME280;45631;51.962;5.974;2022-12-29T09:51:48;99956.78;;;9.05;100.00
59757;BME280;45631;51.962;5.974;2022-12-29T09:54:24;99965.25;;;9.09;100.00
59757;BME280;45631;51.962;5.974;2022-12-29T09:56:55;99961.91;;;9.07;100.00
59757;BME280;45631;51.962;5.974;2022-12-29T09:59:31;99975.22;;;9.04;100.00
59757;BME280;45631;51.962;5.974;2022-12-29T10:02:14;99979.53;;;9.05;100.00
59757;BME280;45631;51.962;5.974;2022-12-29T10:04:45;99977.25;;;9.00;100.00
59757;BME280;45631;51.962;5.974;2022-12-29T10:07:20;99986.19;;;8.98;100.00
59757;BME280;45631;51.962;5.974;2022-12-29T10:10:03;99983.25;;;8.89;100.00
59757;BME280;45631;51.962;5.974;2022-12-29T10:12:50;99994.91;;;8.85;100.00
59757;BME280;45631;51.962;5.974;2022-12-29T10:15:33;100005.53;;;8.84;100.00
59757;BME280;45631;51.962;5.974;2022-12-29T10:18:18;99999.03;;;8.76;100.00
59757;BME280;45631;51.962;5.974;2022-12-29T10:20:53;99994.34;;;8.69;100.00
59757;BME280;45631;51.962;5.974;2022-12-29T10:23:24;99999.16;;;8.62;100.00
59757;BME280;45631;51.962;5.974;2022-12-29T10:25:56;100003.03;;;8.69;100.00
59757;BME280;45631;51.962;5.974;2022-12-29T10:28:33;100003.13;;;8.68;100.00
59757;BME280;45631;51.962;5.974;2022-12-29T10:31:09;100008.81;;;8.61;100.00
59757;BME280;45631;51.962;5.974;2022-12-29T10:33:42;100012.38;;;8.60;100.00
59757;BME280;45631;51.962;5.974;2022-12-29T10:36:14;100008.19;;;8.58;100.00
59757;BME280;45631;51.962;5.974;2022-12-29T10:38:50;100021.91;;;8.61;100.00
59757;BME280;45631;51.962;5.974;2022-12-29T10:41:25;100030.09;;;8.57;100.00
59757;BME280;45631;51.962;5.974;2022-12-29T10:43:57;100016.38;;;8.53;100.00
59757;BME280;45631;51.962;5.974;2022-12-29T10:46:31;100020.25;;;8.60;100.00
59757;BME280;45631;51.962;5.974;2022-12-29T10:49:01;100036.69;;;8.62;100.00
59757;BME280;45631;51.962;5.974;2022-12-29T10:51:32;100044.25;;;8.67;100.00
59757;BME280;45631;51.962;5.974;2022-12-29T10:54:04;100051.25;;;8.67;100.00
59757;BME280;45631;51.962;5.974;2022-12-29T10:56:36;100055.22;;;8.72;100.00
59757;BME280;45631;51.962;5.974;2022-12-29T10:59:14;100057.16;;;8.70;100.00
59757;BME280;45631;51.962;5.974;2022-12-29T11:01:52;100068.03;;;8.77;100.00
59757;BME280;45631;51.962;5.974;2022-12-29T11:04:39;100065.53;;;8.75;100.00
59757;BME280;45631;51.962;5.974;2022-12-29T11:07:12;100061.00;;;8.77;100.00
59757;BME280;45631;51.962;5.974;2022-12-29T11:09:44;100065.41;;;8.77;100.00
59757;BME280;45631;51.962;5.974;2022-12-29T11:12:24;100086.16;;;8.80;100.00
59757;BME280;45631;51.962;5.974;2022-12-29T11:15:12;100081.88;;;8.79;100.00
59757;BME280;45631;51.962;5.974;2022-12-29T11:17:48;100075.03;;;8.76;100.00
59757;BME280;45631;51.962;5.974;2022-12-29T11:20:28;100093.09;;;8.81;100.00
59757;BME280;45631;51.962;5.974;2022-12-29T11:22:56;100100.97;;;8.81;100.00
59757;BME280;45631;51.962;5.974;2022-12-29T11:25:25;100105.06;;;8.85;100.00
59757;BME280;45631;51.962;5.974;2022-12-29T11:27:59;100096.03;;;8.89;100.00
59757;BME280;45631;51.962;5.974;2022-12-29T11:30:30;100099.06;;;8.96;100.00
59757;BME280;45631;51.962;5.974;2022-12-29T11:33:03;100097.78;;;9.02;100.00
59757;BME280;45631;51.962;5.974;2022-12-29T11:35:35;100101.47;;;8.99;100.00
59757;BME280;45631;51.962;5.974;2022-12-29T11:38:04;100101.47;;;8.99;100.00
59757;BME280;45631;51.962;5.974;2022-12-29T11:40:38;100115.41;;;9.00;100.00
59757;BME280;45631;51.962;5.974;2022-12-29T11:43:20;100108.28;;;9.02;100.00
59757;BME280;45631;51.962;5.974;2022-12-29T11:45:52;100117.91;;;9.01;100.00
59757;BME280;45631;51.962;5.974;2022-12-29T11:48:22;100117.91;;;9.01;100.00
59757;BME280;45631;51.962;5.974;2022-12-29T11:50:54;100135.22;;;9.04;100.00
59757;BME280;45631;51.962;5.974;2022-12-29T11:53:26;100127.97;;;9.07;100.00
59757;BME280;45631;51.962;5.974;2022-12-29T11:55:57;100128.72;;;9.09;100.00
59757;BME280;45631;51.962;5.974;2022-12-29T11:58:31;100120.53;;;9.14;100.00
59757;BME280;45631;51.962;5.974;2022-12-29T12:01:01;100136.16;;;9.16;100.00
59757;BME280;45631;51.962;5.974;2022-12-29T12:03:35;100138.56;;;9.19;100.00
59757;BME280;45631;51.962;5.974;2022-12-29T12:06:11;100144.84;;;9.16;100.00
59757;BME280;45631;51.962;5.974;2022-12-29T12:08:46;100151.78;;;9.17;100.00
59757;BME280;45631;51.962;5.974;2022-12-29T12:11:18;100151.66;;;9.19;100.00
59757;BME280;45631;51.962;5.974;2022-12-29T12:13:55;100142.34;;;9.14;100.00
59757;BME280;45631;51.962;5.974;2022-12-29T12:16:29;100141.28;;;9.17;100.00
59757;BME280;45631;51.962;5.974;2022-12-29T12:19:04;100149.03;;;9.19;100.00
59757;BME280;45631;51.962;5.974;2022-12-29T12:21:46;100139.41;;;9.19;100.00
59757;BME280;45631;51.962;5.974;2022-12-29T12:24:34;100149.91;;;9.19;100.00
59757;BME280;45631;51.962;5.974;2022-12-29T12:27:12;100156.81;;;9.20;100.00
59757;BME280;45631;51.962;5.974;2022-12-29T12:29:50;100162.28;;;9.17;100.00
59757;BME280;45631;51.962;5.974;2022-12-29T12:32:23;100157.56;;;9.22;100.00
59757;BME280;45631;51.962;5.974;2022-12-29T12:34:54;100167.41;;;9.19;100.00
59757;BME280;45631;51.962;5.974;2022-12-29T12:37:33;100157.56;;;9.22;100.00
59757;BME280;45631;51.962;5.974;2022-12-29T12:40:29;100166.66;;;9.29;100.00
59757;BME280;45631;51.962;5.974;2022-12-29T12:43:15;100176.75;;;9.36;100.00
59757;BME280;45631;51.962;5.974;2022-12-29T12:46:00;100181.53;;;9.42;100.00
59757;BME280;45631;51.962;5.974;2022-12-29T12:48:48;100180.19;;;9.49;100.00
59757;BME280;45631;51.962;5.974;2022-12-29T12:51:28;100172.06;;;9.52;100.00
59757;BME280;45631;51.962;5.974;2022-12-29T12:54:08;100185.31;;;9.51;100.00
59757;BME280;45631;51.962;5.974;2022-12-29T12:56:47;100183.63;;;9.50;100.00
59757;BME280;45631;51.962;5.974;2022-12-29T12:59:30;100183.22;;;9.43;100.00
59757;BME280;45631;51.962;5.974;2022-12-29T13:02:08;100188.59;;;9.41;100.00
59757;BME280;45631;51.962;5.974;2022-12-29T13:07:40;100186.25;;;9.50;100.00
59757;BME280;45631;51.962;5.974;2022-12-29T13:10:25;100198.75;;;9.46;100.00
59757;BME280;45631;51.962;5.974;2022-12-29T13:13:12;100208.75;;;9.41;100.00
59757;BME280;45631;51.962;5.974;2022-12-29T13:15:48;100209.81;;;9.38;100.00
59757;BME280;45631;51.962;5.974;2022-12-29T13:18:23;100204.13;;;9.32;100.00
59757;BME280;45631;51.962;5.974;2022-12-29T13:20:58;100209.16;;;9.35;100.00
59757;BME280;45631;51.962;5.974;2022-12-29T13:23:35;100210.53;;;9.40;100.00
59757;BME280;45631;51.962;5.974;2022-12-29T13:26:12;100206.53;;;9.35;100.00
59757;BME280;45631;51.962;5.974;2022-12-29T13:28:51;100205.59;;;9.36;100.00
59757;BME280;45631;51.962;5.974;2022-12-29T13:31:28;100214.31;;;9.36;100.00
59757;BME280;45631;51.962;5.974;2022-12-29T13:34:11;100214.09;;;9.39;100.00